Time;durP1;ratioP1;P1;durP2;ratioP2;P2;SDS_P1;SDS_P2;PMS_P1;PMS_P2;Temp;Humidity;BMP_temperature;BMP_pressure;BME280_temperature;BME280_humidity;BME280_pressure;Samples;Min_cycle;Max_cycle;Signal;HPM_P1;HPM_P2
2023/03/04 00:00:08;;;;;;;1999.90;858.88;;;7.70;99.90;;;;;;4994793;28;20044;-88
2023/03/04 00:02:34;;;;;;;1999.90;999.90;;;7.70;99.90;;;;;;4991504;28;20042;-88
2023/03/04 00:04:59;;;;;;;1999.90;999.90;;;9.00;99.90;;;;;;4991157;28;20057;-88
2023/03/04 00:07:25;;;;;;;1999.90;836.50;;;7.70;99.90;;;;;;4992984;28;20042;-87
2023/03/04 00:09:50;;;;;;;1999.90;999.90;;;7.70;99.90;;;;;;4977377;28;20050;-88
2023/03/04 00:12:16;;;;;;;1999.90;999.90;;;7.70;99.90;;;;;;4993591;28;20120;-88
2023/03/04 00:14:42;;;;;;;1999.90;999.90;;;8.00;99.90;;;;;;4993822;28;20050;-88
2023/03/04 00:17:08;;;;;;;1999.90;999.90;;;7.70;99.90;;;;;;4992887;28;20439;-88
2023/03/04 00:19:34;;;;;;;1999.90;999.90;;;8.90;99.90;;;;;;4989511;28;20096;-87
2023/03/04 00:22:00;;;;;;;1999.90;999.90;;;7.50;99.90;;;;;;4991178;28;20057;-87
2023/03/04 00:24:26;;;;;;;1999.90;999.90;;;6.90;99.90;;;;;;4993237;28;20042;-87
2023/03/04 00:26:51;;;;;;;1999.90;737.03;;;8.00;99.90;;;;;;4993326;28;20103;-88
2023/03/04 00:29:17;;;;;;;1999.90;999.90;;;7.70;99.90;;;;;;4961151;28;20049;-88
2023/03/04 00:31:43;;;;;;;1999.90;999.90;;;7.50;99.90;;;;;;4989846;28;20058;-88
2023/03/04 00:34:09;;;;;;;1999.90;988.78;;;7.70;99.90;;;;;;4987330;28;20073;-87
2023/03/04 00:36:34;;;;;;;1999.90;999.90;;;8.40;99.90;;;;;;4986672;28;20287;-87
2023/03/04 00:39:00;;;;;;;1999.90;999.90;;;7.70;99.90;;;;;;4974173;28;20125;-87
2023/03/04 00:41:26;;;;;;;1999.90;999.90;;;7.50;99.90;;;;;;4991921;28;20049;-87
2023/03/04 00:43:51;;;;;;;1999.90;999.90;;;7.90;99.90;;;;;;4987074;28;20125;-88
2023/03/04 00:46:17;;;;;;;1999.90;656.83;;;7.70;99.90;;;;;;4977011;28;20038;-88
2023/03/04 00:48:43;;;;;;;1999.90;999.90;;;7.70;99.90;;;;;;4991824;28;20053;-88
2023/03/04 00:51:08;;;;;;;1999.90;999.90;;;8.10;99.90;;;;;;4993641;28;20043;-87
2023/03/04 00:53:34;;;;;;;1999.90;999.90;;;7.20;99.90;;;;;;4991120;28;20475;-87
2023/03/04 00:56:00;;;;;;;1999.90;999.90;;;7.90;99.90;;;;;;4981512;28;20073;-88
2023/03/04 00:58:25;;;;;;;1999.90;982.33;;;7.20;99.90;;;;;;4993152;28;20497;-87
2023/03/04 01:00:51;;;;;;;1999.90;999.90;;;7.60;99.90;;;;;;4992883;28;20042;-87
2023/03/04 01:03:17;;;;;;;1999.90;841.13;;;10.00;99.90;;;;;;4974595;28;20418;-88
2023/03/04 01:05:43;;;;;;;1999.90;999.90;;;7.60;99.90;;;;;;4993132;28;20069;-87
2023/03/04 01:08:08;;;;;;;1999.90;999.90;;;7.80;99.90;;;;;;4990695;28;20125;-87
2023/03/04 01:10:34;;;;;;;1999.90;954.33;;;7.60;99.90;;;;;;4994302;28;20076;-86
2023/03/04 01:13:00;;;;;;;1999.90;999.90;;;7.40;99.90;;;;;;4974715;28;20125;-87
2023/03/04 01:15:26;;;;;;;1999.90;961.08;;;8.90;99.90;;;;;;4992808;28;20053;-86
2023/03/04 01:17:52;;;;;;;1999.90;999.90;;;8.60;99.90;;;;;;4993674;28;20566;-86
2023/03/04 01:20:18;;;;;;;1999.90;999.90;;;7.80;99.90;;;;;;4994353;28;20105;-85
2023/03/04 01:22:44;;;;;;;1999.90;999.90;;;7.70;99.90;;;;;;4992646;28;20082;-85
2023/03/04 01:25:09;;;;;;;1999.90;999.90;;;7.60;99.90;;;;;;4980563;28;20073;-86
2023/03/04 01:27:35;;;;;;;1999.90;999.90;;;7.60;99.90;;;;;;4989532;28;20047;-86
2023/03/04 01:30:02;;;;;;;1999.90;999.90;;;8.90;99.90;;;;;;4993174;28;20582;-87
2023/03/04 01:32:28;;;;;;;1999.90;999.90;;;7.80;99.90;;;;;;4993334;28;20042;-85
2023/03/04 01:34:54;;;;;;;1999.90;999.90;;;8.00;99.90;;;;;;4990912;28;20050;-86
2023/03/04 01:37:19;;;;;;;1999.90;999.90;;;7.80;99.90;;;;;;4992030;28;20046;-85
2023/03/04 01:39:45;;;;;;;1999.90;999.90;;;8.30;99.90;;;;;;4992140;28;20482;-86
2023/03/04 01:42:19;;;;;;;1999.90;999.90;;;7.80;99.90;;;;;;4992387;28;20050;-86
2023/03/04 01:44:46;;;;;;;1999.90;918.33;;;7.80;99.90;;;;;;4987128;28;20051;-86
2023/03/04 01:47:13;;;;;;;1999.90;981.65;;;9.20;99.90;;;;;;4990148;28;20047;-86
2023/03/04 01:49:39;;;;;;;1999.90;999.90;;;7.10;99.90;;;;;;4994832;28;20101;-86
2023/03/04 01:52:05;;;;;;;1999.90;999.90;;;8.90;99.90;;;;;;4980132;28;20475;-86
2023/03/04 01:54:31;;;;;;;1999.90;999.90;;;;;;;;;;4994584;28;20096;-86
2023/03/04 01:56:59;;;;;;;1999.90;999.90;;;7.60;99.90;;;;;;4996979;28;20038;-87
2023/03/04 01:59:29;;;;;;;1999.90;999.90;;;6.60;99.90;;;;;;4994017;28;20042;-86
2023/03/04 02:01:57;;;;;;;1999.90;996.88;;;7.70;99.90;;;;;;4994809;28;20072;-86
2023/03/04 02:04:26;;;;;;;1999.90;999.90;;;7.60;99.90;;;;;;4994067;28;20101;-86
2023/03/04 02:06:52;;;;;;;1999.90;999.90;;;7.60;99.90;;;;;;4995086;28;20038;-86
2023/03/04 02:09:19;;;;;;;1999.90;999.90;;;7.70;99.90;;;;;;4978400;28;20125;-86
2023/03/04 02:11:46;;;;;;;1999.90;999.90;;;7.20;99.90;;;;;;4996129;28;20096;-86
2023/03/04 02:14:13;;;;;;;1999.90;999.90;;;7.90;99.90;;;;;;4993978;28;20074;-87
2023/03/04 02:16:39;;;;;;;1999.90;999.90;;;5.90;99.90;;;;;;4994441;28;20048;-86
2023/03/04 02:19:12;;;;;;;1999.90;999.90;;;8.80;99.90;;;;;;4994206;28;20038;-86
2023/03/04 02:21:38;;;;;;;1999.90;999.90;;;7.80;99.90;;;;;;4994679;28;20108;-86
2023/03/04 02:24:25;;;;;;;1999.90;999.90;;;8.10;99.90;;;;;;4988420;28;20039;-87
2023/03/04 02:26:51;;;;;;;1999.90;999.90;;;7.60;99.90;;;;;;5005059;28;20136;-86
2023/03/04 02:29:17;;;;;;;1999.90;999.90;;;8.00;99.90;;;;;;4990883;28;20490;-87
2023/03/04 02:31:46;;;;;;;1999.90;999.90;;;7.50;99.90;;;;;;4994011;28;20483;-87
2023/03/04 02:34:15;;;;;;;1999.90;999.90;;;7.50;99.90;;;;;;4993064;28;20050;-86
2023/03/04 02:36:42;;;;;;;1999.90;999.90;;;9.10;99.90;;;;;;4993548;28;20038;-87
2023/03/04 02:39:18;;;;;;;1999.90;999.90;;;8.20;99.90;;;;;;4996463;28;20089;-86
2023/03/04 02:41:45;;;;;;;1999.90;983.20;;;7.80;99.90;;;;;;4995353;28;20056;-87
2023/03/04 02:44:18;;;;;;;1999.90;999.90;;;7.50;99.90;;;;;;4994396;28;20117;-88
2023/03/04 02:46:44;;;;;;;1999.90;999.63;;;6.10;99.90;;;;;;4993500;28;20049;-87
2023/03/04 02:49:09;;;;;;;1999.90;999.90;;;8.00;99.90;;;;;;4992805;28;20034;-87
2023/03/04 02:51:35;;;;;;;1999.90;999.90;;;7.60;99.90;;;;;;4977522;28;20053;-87
2023/03/04 02:54:01;;;;;;;1999.90;941.47;;;8.40;99.90;;;;;;4993249;28;20042;-87
2023/03/04 02:56:26;;;;;;;1999.90;999.90;;;7.50;99.90;;;;;;4993527;28;20387;-87
2023/03/04 02:58:52;;;;;;;1999.90;999.90;;;7.30;99.90;;;;;;4994023;28;20038;-87
2023/03/04 03:01:18;;;;;;;1999.90;999.90;;;7.50;99.90;;;;;;4977964;28;20446;-87
2023/03/04 03:03:44;;;;;;;1999.90;999.90;;;5.80;99.90;;;;;;4995194;28;20046;-87
2023/03/04 03:06:10;;;;;;;1999.90;903.65;;;6.10;99.90;;;;;;4993175;28;20092;-88
2023/03/04 03:08:36;;;;;;;1999.90;999.90;;;7.70;99.90;;;;;;4992811;28;20045;-87
2023/03/04 03:11:01;;;;;;;1999.90;963.80;;;7.50;99.90;;;;;;4993701;28;20053;-87
2023/03/04 03:13:27;;;;;;;1999.90;999.90;;;7.40;99.90;;;;;;4975631;28;20372;-86
2023/03/04 03:15:54;;;;;;;1999.90;999.90;;;;;;;;;;4992156;28;20049;-88
2023/03/04 03:18:20;;;;;;;1999.90;905.95;;;;;;;;;;4992706;28;20386;-87
2023/03/04 03:20:45;;;;;;;1999.90;999.90;;;6.40;99.90;;;;;;4984715;28;20391;-87
2023/03/04 03:23:11;;;;;;;1999.90;999.88;;;;;;;;;;4989116;28;20046;-88
2023/03/04 03:25:37;;;;;;;1999.90;999.90;;;7.70;99.90;;;;;;4994578;28;20426;-88
2023/03/04 03:28:03;;;;;;;1999.90;999.90;;;7.40;99.90;;;;;;4990921;28;20105;-88
2023/03/04 03:30:29;;;;;;;1999.90;995.03;;;7.40;99.90;;;;;;4991061;28;20065;-87
2023/03/04 03:32:55;;;;;;;1999.90;999.90;;;7.50;99.90;;;;;;4989249;28;20367;-87
2023/03/04 03:35:20;;;;;;;1999.90;999.90;;;7.40;99.90;;;;;;4975940;28;20050;-86
2023/03/04 03:37:47;;;;;;;1999.90;943.00;;;5.60;99.90;;;;;;4994504;28;20046;-86
2023/03/04 03:40:14;;;;;;;1999.90;847.38;;;7.70;99.90;;;;;;4995569;28;20386;-86
2023/03/04 03:42:40;;;;;;;1999.90;999.90;;;7.40;99.90;;;;;;4993576;28;20046;-86
2023/03/04 03:45:06;;;;;;;1999.90;999.90;;;7.40;99.90;;;;;;4991705;28;20038;-86
2023/03/04 03:47:32;;;;;;;1999.90;862.90;;;7.40;99.90;;;;;;4996539;28;20363;-86
2023/03/04 03:49:57;;;;;;;1999.90;999.90;;;6.80;99.90;;;;;;4990581;28;20103;-86
2023/03/04 03:52:23;;;;;;;1999.90;999.90;;;7.40;99.90;;;;;;4976239;28;20046;-86
2023/03/04 03:54:49;;;;;;;1999.90;999.90;;;6.10;99.90;;;;;;4992012;28;20046;-86
2023/03/04 03:57:14;;;;;;;1999.90;999.90;;;8.40;99.90;;;;;;4993690;28;20038;-86
2023/03/04 03:59:40;;;;;;;1999.90;999.90;;;9.30;99.90;;;;;;4988651;28;20053;-86
2023/03/04 04:02:06;;;;;;;1999.90;999.90;;;7.60;99.90;;;;;;4991607;28;20062;-87
2023/03/04 04:04:32;;;;;;;1999.90;999.90;;;9.10;99.90;;;;;;4991732;28;20390;-87
2023/03/04 04:06:58;;;;;;;1999.90;999.90;;;8.70;99.90;;;;;;4992218;28;20046;-87
2023/03/04 04:09:23;;;;;;;1999.90;999.90;;;9.40;99.90;;;;;;4991151;28;20045;-86
2023/03/04 04:11:49;;;;;;;1999.90;999.90;;;7.10;99.90;;;;;;4975049;28;20415;-86
2023/03/04 04:14:15;;;;;;;1999.90;999.90;;;7.40;99.90;;;;;;4992150;28;20112;-87
2023/03/04 04:16:41;;;;;;;1999.90;999.90;;;7.50;99.90;;;;;;4994844;28;20046;-86
2023/03/04 04:19:09;;;;;;;1999.90;999.90;;;7.10;99.90;;;;;;4991019;28;20251;-86
2023/03/04 04:21:34;;;;;;;1999.90;999.90;;;7.40;99.90;;;;;;4976596;28;20042;-87
2023/03/04 04:24:00;;;;;;;1999.90;953.45;;;7.30;99.90;;;;;;4974613;28;20101;-87
2023/03/04 04:26:26;;;;;;;1999.90;951.83;;;7.90;99.90;;;;;;4975329;28;20447;-87
2023/03/04 04:28:52;;;;;;;1999.90;999.90;;;8.00;99.90;;;;;;4977524;28;20053;-88
2023/03/04 04:31:17;;;;;;;1999.90;989.75;;;7.40;99.90;;;;;;4992162;28;20046;-88
2023/03/04 04:33:43;;;;;;;1999.90;999.90;;;8.10;99.90;;;;;;4993412;28;20086;-87
2023/03/04 04:36:13;;;;;;;1999.90;999.90;;;7.20;99.90;;;;;;4990379;28;20524;-88
2023/03/04 04:38:39;;;;;;;1999.90;999.90;;;7.60;99.90;;;;;;4992674;28;20426;-86
2023/03/04 04:41:05;;;;;;;1999.90;974.70;;;7.00;99.90;;;;;;4989662;28;20049;-88
2023/03/04 04:43:30;;;;;;;1999.90;999.90;;;8.60;99.90;;;;;;4991279;28;20125;-87
2023/03/04 04:45:58;;;;;;;1999.90;999.90;;;8.50;99.90;;;;;;4993108;28;20053;-88
2023/03/04 04:48:24;;;;;;;;;;;7.60;99.90;;;;;;4993030;28;20422;-88
2023/03/04 04:50:55;;;;;;;1999.90;999.90;;;7.20;99.90;;;;;;4993961;28;19917;-88
2023/03/04 04:53:20;;;;;;;1999.90;999.90;;;7.20;99.90;;;;;;4992551;28;20050;-88
2023/03/04 04:55:46;;;;;;;1999.90;999.90;;;;;;;;;;4993850;28;20046;-88
2023/03/04 04:58:12;;;;;;;1999.90;999.90;;;6.40;99.90;;;;;;4976433;28;20344;-88
2023/03/04 05:00:38;;;;;;;1999.90;999.90;;;7.10;99.90;;;;;;4992267;28;20069;-87
2023/03/04 05:03:03;;;;;;;1999.90;999.90;;;7.40;99.90;;;;;;4974508;28;20073;-87
2023/03/04 05:05:29;;;;;;;1999.90;999.90;;;7.00;1.00;;;;;;4993558;28;20137;-87
2023/03/04 05:07:55;;;;;;;1999.90;999.90;;;7.10;99.90;;;;;;4993454;28;20101;-86
2023/03/04 05:10:20;;;;;;;1999.90;999.90;;;7.10;99.90;;;;;;4991829;28;20120;-87
2023/03/04 05:12:46;;;;;;;1999.90;999.90;;;7.10;99.90;;;;;;4992268;28;20081;-88
2023/03/04 05:15:12;;;;;;;1999.90;928.53;;;8.00;99.90;;;;;;4993360;28;20125;-87
2023/03/04 05:17:37;;;;;;;1999.90;999.90;;;7.20;99.90;;;;;;4990821;28;20050;-87
2023/03/04 05:20:05;;;;;;;1999.90;999.90;;;;;;;;;;4991253;28;20048;-87
2023/03/04 05:22:31;;;;;;;1999.90;999.90;;;7.10;99.90;;;;;;4992037;28;20125;-87
2023/03/04 05:24:57;;;;;;;1999.90;978.72;;;7.90;99.90;;;;;;5000922;28;20125;-87
2023/03/04 05:27:23;;;;;;;1999.90;999.90;;;7.20;99.90;;;;;;4996094;28;20446;-87
2023/03/04 05:29:48;;;;;;;1999.90;999.90;;;7.20;99.90;;;;;;4997795;28;20493;-88
2023/03/04 05:32:14;;;;;;;1999.90;999.90;;;7.00;1.00;;;;;;4995133;28;20044;-87
2023/03/04 05:34:40;;;;;;;1999.90;999.90;;;7.80;99.90;;;;;;4995982;28;20054;-87
2023/03/04 05:37:05;;;;;;;1999.90;999.90;;;8.20;1.00;;;;;;4995427;28;20621;-87
2023/03/04 05:39:31;;;;;;;1999.90;926.85;;;8.10;1.00;;;;;;4998169;28;20041;-86
2023/03/04 05:41:57;;;;;;;1999.90;829.65;;;7.20;1.00;;;;;;4996485;28;20073;-87
2023/03/04 05:44:22;;;;;;;1999.90;959.55;;;7.30;1.00;;;;;;4990465;28;20042;-87
2023/03/04 05:46:48;;;;;;;1999.90;999.90;;;7.30;1.00;;;;;;4989000;28;20471;-87
2023/03/04 05:49:14;;;;;;;1999.90;999.90;;;6.00;1.00;;;;;;4977540;28;20034;-87
2023/03/04 05:51:39;;;;;;;1999.90;999.90;;;8.70;1.00;;;;;;4996149;28;20543;-87
2023/03/04 05:54:05;;;;;;;1999.90;956.05;;;7.70;1.00;;;;;;4993183;28;20093;-87
2023/03/04 05:56:32;;;;;;;1999.90;942.88;;;7.10;1.00;;;;;;4995268;28;20497;-87
2023/03/04 05:58:58;;;;;;;1999.90;470.50;;;8.20;1.00;;;;;;4996160;28;20046;-87
2023/03/04 06:01:24;;;;;;;1999.90;866.60;;;7.10;1.00;;;;;;4995920;28;20049;-87
2023/03/04 06:03:50;;;;;;;1999.90;999.90;;;7.10;1.00;;;;;;4995226;28;20064;-87
2023/03/04 06:06:16;;;;;;;1999.90;999.90;;;7.70;1.00;;;;;;4995244;28;20530;-87
2023/03/04 06:08:41;;;;;;;1999.90;999.90;;;7.00;1.00;;;;;;4997085;28;20085;-87
2023/03/04 06:11:07;;;;;;;1999.90;866.20;;;7.10;1.00;;;;;;4995009;28;20085;-86
2023/03/04 06:13:33;;;;;;;1999.90;806.90;;;7.10;1.00;;;;;;4994962;28;20078;-87
2023/03/04 06:15:59;;;;;;;1999.90;999.90;;;5.30;1.00;;;;;;4996887;28;20085;-87
2023/03/04 06:18:26;;;;;;;1999.90;999.90;;;5.60;1.00;;;;;;4993151;28;20046;-87
2023/03/04 06:20:57;;;;;;;1999.90;905.30;;;8.40;1.00;;;;;;4975728;28;20042;-87
2023/03/04 06:23:23;;;;;;;1999.90;886.70;;;7.10;1.00;;;;;;4984080;28;20061;-87
2023/03/04 06:25:53;;;;;;;1999.90;741.78;;;6.50;1.00;;;;;;4979382;28;20042;-86
2023/03/04 06:28:19;;;;;;;1999.90;861.25;;;;;;;;;;4993747;28;20049;-87
2023/03/04 06:30:45;;;;;;;1999.90;761.10;;;;;;;;;;4995038;28;20046;-86
2023/03/04 06:33:11;;;;;;;1999.90;795.45;;;;;;;;;;4972825;28;20070;-86
2023/03/04 06:35:37;;;;;;;1999.90;999.90;;;7.10;1.00;;;;;;4993924;28;20077;-87
2023/03/04 06:38:03;;;;;;;1999.90;999.90;;;7.40;1.00;;;;;;4992393;28;20470;-86
2023/03/04 06:40:29;;;;;;;1999.90;999.90;;;8.20;1.00;;;;;;4997188;28;20258;-86
2023/03/04 06:42:54;;;;;;;1999.90;999.90;;;6.50;4.60;;;;;;4978467;28;20050;-86
2023/03/04 06:45:20;;;;;;;1999.90;450.60;;;7.10;1.00;;;;;;4994868;28;20042;-85
2023/03/04 06:47:46;;;;;;;1999.90;999.90;;;8.50;7.50;;;;;;4997088;28;20125;-85
2023/03/04 06:50:12;;;;;;;1999.90;999.90;;;7.90;20.40;;;;;;4994050;28;20042;-85
2023/03/04 06:52:39;;;;;;;1999.90;709.42;;;7.30;1.00;;;;;;4994613;28;20050;-85
2023/03/04 06:55:05;;;;;;;1999.90;762.58;;;8.20;1.40;;;;;;4994408;28;20471;-86
2023/03/04 06:57:31;;;;;;;1999.90;999.90;;;7.40;1.00;;;;;;4986981;28;20030;-85
2023/03/04 06:59:56;;;;;;;1999.90;999.90;;;7.40;1.00;;;;;;4972017;28;20058;-85
2023/03/04 07:02:22;;;;;;;1999.90;653.05;;;8.20;1.00;;;;;;4993234;28;20394;-85
2023/03/04 07:04:48;;;;;;;1999.90;999.90;;;7.30;1.00;;;;;;4991175;28;20058;-85
2023/03/04 07:07:14;;;;;;;1999.90;999.90;;;7.20;1.00;;;;;;4991211;28;20486;-85
2023/03/04 07:09:40;;;;;;;1999.90;999.90;;;7.30;1.40;;;;;;4974973;28;20120;-85
2023/03/04 07:12:05;;;;;;;1999.90;999.90;;;7.30;1.00;;;;;;4994766;28;20073;-85
2023/03/04 07:14:31;;;;;;;1999.90;999.90;;;6.60;38.60;;;;;;4974683;28;20107;-85
2023/03/04 07:16:57;;;;;;;1999.90;999.90;;;;;;;;;;4988942;28;20381;-85
2023/03/04 07:19:23;;;;;;;1999.90;999.90;;;6.60;28.00;;;;;;4990673;28;20088;-84
2023/03/04 07:21:49;;;;;;;1999.90;432.98;;;7.50;1.00;;;;;;4992002;28;20081;-85
2023/03/04 07:24:14;;;;;;;1999.90;999.90;;;5.90;12.70;;;;;;4986148;28;20072;-85
2023/03/04 07:26:40;;;;;;;1999.90;999.90;;;7.60;1.00;;;;;;5010564;28;20105;-85
2023/03/04 07:29:09;;;;;;;1999.90;596.40;;;8.70;1.00;;;;;;4993189;28;20401;-85
2023/03/04 07:31:35;;;;;;;1999.90;999.90;;;8.50;1.00;;;;;;4989123;28;20042;-85
2023/03/04 07:34:03;;;;;;;1999.90;999.90;;;7.80;1.00;;;;;;4990727;28;20050;-86
2023/03/04 07:36:30;;;;;;;1999.90;999.90;;;8.50;1.00;;;;;;4996130;28;20129;-85
2023/03/04 07:38:56;;;;;;;1999.90;999.90;;;7.90;19.70;;;;;;4987829;28;20059;-85
2023/03/04 07:41:24;;;;;;;1999.90;999.90;;;9.10;45.20;;;;;;4983372;28;20054;-85
2023/03/04 07:43:50;;;;;;;1999.90;999.90;;;7.90;48.50;;;;;;4968784;28;20121;-86
2023/03/04 07:46:17;;;;;;;1999.90;999.90;;;9.40;35.20;;;;;;4986255;28;20466;-85
2023/03/04 07:48:43;;;;;;;1999.90;999.90;;;7.60;30.60;;;;;;4987058;28;20045;-86
2023/03/04 07:51:14;;;;;;;1999.90;999.90;;;7.90;1.00;;;;;;4987430;28;20121;-86
2023/03/04 07:53:42;;;;;;;1999.90;999.90;;;7.80;47.70;;;;;;4983252;28;20050;-86
2023/03/04 07:56:09;;;;;;;;;;;8.00;6.50;;;;;;4969721;28;20046;-85
2023/03/04 07:58:35;;;;;;;1999.90;999.90;;;;;;;;;;4983846;28;20375;-85
2023/03/04 08:01:08;;;;;;;1999.90;999.90;;;8.00;14.30;;;;;;4985286;28;20038;-86
2023/03/04 08:03:34;;;;;;;1999.90;999.90;;;7.90;55.80;;;;;;4987122;28;20050;-85
2023/03/04 08:05:59;;;;;;;1999.90;999.90;;;7.40;50.20;;;;;;4986647;28;20046;-85
2023/03/04 08:08:25;;;;;;;1999.90;999.90;;;;;;;;;;4983687;28;20088;-86
2023/03/04 08:10:51;;;;;;;1999.90;999.90;;;8.10;55.60;;;;;;4987189;28;20565;-86
2023/03/04 08:13:17;;;;;;;1999.90;689.17;;;;;;;;;;4968923;28;20043;-86
2023/03/04 08:15:43;;;;;;;1999.90;999.90;;;7.20;67.50;;;;;;4982754;28;20162;-86
2023/03/04 08:18:09;;;;;;;1999.90;726.60;;;8.60;25.90;;;;;;4982994;28;20124;-86
2023/03/04 08:20:34;;;;;;;1999.90;999.90;;;9.00;53.10;;;;;;4983482;28;20096;-86
2023/03/04 08:23:00;;;;;;;1999.90;999.90;;;8.90;6.00;;;;;;4984628;28;20053;-86
2023/03/04 08:25:26;;;;;;;1999.90;999.90;;;9.50;1.00;;;;;;4954455;28;20055;-87
2023/03/04 08:27:51;;;;;;;1999.90;600.08;;;9.90;14.60;;;;;;4984721;28;20050;-86
2023/03/04 08:30:17;;;;;;;1999.90;999.90;;;9.20;1.00;;;;;;4986098;28;20530;-86
2023/03/04 08:32:43;;;;;;;1999.90;671.97;;;9.20;1.00;;;;;;4980413;28;20077;-86
2023/03/04 08:35:09;;;;;;;1999.90;999.90;;;9.00;1.00;;;;;;4983559;28;20594;-86
2023/03/04 08:37:35;;;;;;;1999.90;673.17;;;8.80;1.00;;;;;;4983915;28;20073;-87
2023/03/04 08:40:00;;;;;;;1999.90;999.90;;;8.10;11.80;;;;;;4979039;28;20474;-86
2023/03/04 08:42:26;;;;;;;1999.90;999.90;;;9.30;20.20;;;;;;4967018;28;20042;-86
2023/03/04 08:44:52;;;;;;;1999.90;999.90;;;8.60;19.50;;;;;;4986260;28;20058;-86
2023/03/04 08:47:17;;;;;;;1999.90;757.88;;;8.60;1.00;;;;;;4969411;28;20049;-85
2023/03/04 08:49:44;;;;;;;1999.90;836.38;;;;;;;;;;4984633;28;20581;-87
2023/03/04 08:52:09;;;;;;;1999.90;397.95;;;8.80;1.00;;;;;;4984921;28;20051;-86
2023/03/04 08:54:35;;;;;;;1999.90;343.13;;;8.80;1.00;;;;;;4984915;28;20108;-86
2023/03/04 08:57:01;;;;;;;1999.90;550.17;;;8.70;1.00;;;;;;4966975;28;20092;-86
2023/03/04 08:59:27;;;;;;;1999.90;762.67;;;9.80;6.60;;;;;;4986980;28;20058;-86
2023/03/04 09:01:53;;;;;;;1999.90;521.67;;;8.60;1.00;;;;;;4974978;28;20057;-86
2023/03/04 09:04:18;;;;;;;1999.90;398.65;;;8.70;1.00;;;;;;4956615;28;20046;-86
2023/03/04 09:06:44;;;;;;;1999.90;652.22;;;8.70;1.00;;;;;;4988332;28;20423;-85
2023/03/04 09:09:10;;;;;;;1999.90;372.08;;;8.80;1.00;;;;;;4989292;28;20046;-86
2023/03/04 09:11:36;;;;;;;1999.90;742.60;;;10.60;1.00;;;;;;4974228;28;20043;-86
2023/03/04 09:14:01;;;;;;;1999.90;680.00;;;8.40;1.00;;;;;;4990524;28;20046;-86
2023/03/04 09:16:27;;;;;;;1999.90;974.28;;;7.90;1.00;;;;;;4986705;28;20411;-86
2023/03/04 09:18:53;;;;;;;1999.90;737.42;;;8.60;1.00;;;;;;4973294;28;20054;-86
2023/03/04 09:21:18;;;;;;;1999.90;948.92;;;8.00;1.00;;;;;;4987304;28;20046;-86
2023/03/04 09:23:44;;;;;;;1999.90;766.80;;;8.50;1.00;;;;;;4984149;28;20408;-86
2023/03/04 09:26:23;;;;;;;1999.90;860.05;;;8.50;1.00;;;;;;4972517;28;20068;-85
2023/03/04 09:28:53;;;;;;;1999.90;706.38;;;8.00;22.40;;;;;;4984174;28;20047;-85
2023/03/04 09:31:20;;;;;;;1999.90;501.27;;;8.50;1.00;;;;;;4985631;28;20054;-85
2023/03/04 09:33:46;;;;;;;1999.90;759.28;;;8.80;1.00;;;;;;4988221;28;20062;-86
2023/03/04 09:36:13;;;;;;;1999.90;934.00;;;7.10;14.20;;;;;;4989102;28;20054;-86
2023/03/04 09:38:39;;;;;;;1999.90;505.48;;;8.60;1.00;;;;;;4971480;28;20498;-86
2023/03/04 09:41:20;;;;;;;1999.90;405.77;;;8.60;1.00;;;;;;4989367;28;20455;-86
2023/03/04 09:43:48;;;;;;;1999.90;617.90;;;13.20;5.50;;;;;;4986962;28;20069;-86
2023/03/04 09:46:45;;;;;;;1999.90;732.65;;;9.10;1.00;;;;;;4988521;28;20053;-86
2023/03/04 09:49:12;;;;;;;1999.90;999.90;;;8.80;1.00;;;;;;4982315;28;20137;-86
2023/03/04 09:51:51;;;;;;;1999.90;726.75;;;8.40;1.00;;;;;;4987498;28;20557;-86
2023/03/04 09:54:23;;;;;;;1999.90;473.90;;;8.90;1.00;;;;;;4980350;28;20073;-85
2023/03/04 09:56:52;;;;;;;1999.90;844.75;;;8.60;1.00;;;;;;4985876;28;20042;-85
2023/03/04 09:59:39;;;;;;;1999.90;996.67;;;9.10;1.00;;;;;;4984393;28;20051;-85
2023/03/04 10:02:31;;;;;;;1999.90;813.92;;;9.60;1.00;;;;;;4990239;28;20381;-85
2023/03/04 10:05:01;;;;;;;1999.90;702.85;;;9.20;1.00;;;;;;4981312;28;20054;-85
2023/03/04 10:07:34;;;;;;;1999.90;577.60;;;9.90;1.00;;;;;;4988408;28;20046;-86
2023/03/04 10:10:03;;;;;;;1999.90;747.95;;;9.00;1.00;;;;;;4987114;28;20423;-85
2023/03/04 10:12:33;;;;;;;1999.90;999.90;;;9.00;1.00;;;;;;4989163;28;20061;-85
2023/03/04 10:15:03;;;;;;;1999.90;534.75;;;9.00;1.00;;;;;;4989553;28;20078;-86
2023/03/04 10:17:39;;;;;;;1999.90;729.50;;;9.10;1.00;;;;;;4987633;28;20081;-85
2023/03/04 10:20:40;;;;;;;1999.90;879.08;;;9.20;1.00;;;;;;4984838;28;20051;-85
2023/03/04 10:23:18;;;;;;;1999.90;999.90;;;9.10;1.00;;;;;;4990007;28;20084;-85
2023/03/04 10:25:45;;;;;;;1999.90;995.67;;;10.70;1.00;;;;;;4989723;28;20054;-86
2023/03/04 10:28:15;;;;;;;1999.90;997.65;;;9.40;1.00;;;;;;4989329;28;20515;-87
2023/03/04 10:31:08;;;;;;;1999.90;489.90;;;9.50;1.00;;;;;;4986036;28;20046;-87
2023/03/04 10:33:36;;;;;;;1999.90;511.92;;;9.60;1.00;;;;;;4986275;28;20050;-87
2023/03/04 10:36:13;;;;;;;1999.90;520.97;;;9.70;1.00;;;;;;4988855;28;20058;-87
2023/03/04 10:38:41;;;;;;;1999.90;999.90;;;10.00;99.90;;;;;;4987515;28;20042;-85
2023/03/04 10:41:20;;;;;;;1999.90;624.47;;;9.90;99.90;;;;;;4990152;28;20049;-88
2023/03/04 10:43:57;;;;;;;;;;;10.10;99.90;;;;;;4989580;28;20046;-86
2023/03/04 10:46:23;;;;;;;1999.90;586.13;;;10.10;99.90;;;;;;4988646;28;19929;-85
2023/03/04 10:48:48;;;;;;;1999.90;805.38;;;9.90;99.90;;;;;;4969707;28;20047;-86
2023/03/04 10:51:24;;;;;;;1999.90;719.47;;;10.50;99.90;;;;;;4987410;28;20050;-86
2023/03/04 10:54:07;;;;;;;1999.90;875.28;;;10.10;99.90;;;;;;4989063;28;20112;-86
2023/03/04 10:56:45;;;;;;;1999.90;999.90;;;10.10;99.90;;;;;;4988591;28;20392;-86
2023/03/04 10:59:30;;;;;;;1999.90;617.47;;;9.20;99.90;;;;;;4986551;28;20039;-86
2023/03/04 11:02:00;;;;;;;1999.90;807.72;;;9.40;99.90;;;;;;4983722;28;20046;-85
2023/03/04 11:04:31;;;;;;;1999.90;557.25;;;9.80;99.90;;;;;;4980296;28;20051;-85
2023/03/04 11:06:57;;;;;;;1999.90;703.33;;;9.80;99.90;;;;;;4983542;28;20047;-85
2023/03/04 11:09:28;;;;;;;1999.90;453.67;;;9.70;99.90;;;;;;4991215;28;20053;-85
2023/03/04 11:11:57;;;;;;;1999.90;558.28;;;9.60;99.90;;;;;;4982524;28;20492;-86
2023/03/04 11:14:27;;;;;;;1999.90;455.00;;;9.80;99.90;;;;;;4985149;28;20490;-88
2023/03/04 11:17:01;;;;;;;1999.90;541.85;;;9.80;99.90;;;;;;4986277;28;20086;-85
2023/03/04 11:19:37;;;;;;;1999.90;593.83;;;9.90;99.90;;;;;;4989109;28;20458;-87
2023/03/04 11:22:04;;;;;;;1999.90;756.22;;;9.30;99.90;;;;;;4981692;28;20070;-85
2023/03/04 11:24:33;;;;;;;1999.90;624.00;;;9.90;99.90;;;;;;4986324;28;20562;-85
2023/03/04 11:27:14;;;;;;;1999.90;530.30;;;10.00;99.90;;;;;;4986433;28;20054;-86
2023/03/04 11:30:22;;;;;;;1999.90;481.90;;;9.50;99.90;;;;;;4985024;28;20054;-85
2023/03/04 11:32:52;;;;;;;1985.05;334.88;;;10.10;99.90;;;;;;4985496;28;20198;-86
2023/03/04 11:35:57;;;;;;;1999.90;701.78;;;10.30;99.90;;;;;;4983832;28;20368;-86
2023/03/04 11:38:30;;;;;;;1999.90;710.65;;;10.40;99.90;;;;;;4984356;28;20391;-86
2023/03/04 11:41:42;;;;;;;1999.90;818.38;;;10.40;99.90;;;;;;4984231;28;20479;-85
2023/03/04 11:44:11;;;;;;;1999.90;999.90;;;10.40;99.90;;;;;;4982671;28;20076;-86
2023/03/04 11:47:06;;;;;;;1999.90;635.95;;;10.40;99.90;;;;;;4984046;28;20050;-85
2023/03/04 11:49:54;;;;;;;1999.90;931.35;;;10.40;99.90;;;;;;4983174;28;20620;-85
2023/03/04 11:52:49;;;;;;;1999.90;999.90;;;10.50;99.90;;;;;;4986104;28;20418;-84
2023/03/04 11:55:33;;;;;;;1999.90;926.95;;;10.50;99.90;;;;;;4983986;28;21372;-85
2023/03/04 11:58:26;;;;;;;1999.90;959.83;;;10.60;99.90;;;;;;4981104;28;20053;-85
2023/03/04 12:01:00;;;;;;;1999.90;999.90;;;10.80;99.90;;;;;;4985107;28;20038;-85
2023/03/04 12:03:55;;;;;;;1999.90;577.80;;;11.00;99.90;;;;;;4983393;28;20042;-85
2023/03/04 12:06:51;;;;;;;1999.90;958.63;;;11.20;99.90;;;;;;4985988;28;20046;-86
2023/03/04 12:09:46;;;;;;;1999.90;995.17;;;11.40;99.90;;;;;;4985834;28;20111;-85
2023/03/04 12:12:31;;;;;;;1999.90;732.47;;;11.50;99.90;;;;;;4949777;28;20060;-85
2023/03/04 12:15:36;;;;;;;1999.90;453.52;;;11.70;99.90;;;;;;4986677;28;20061;-85
2023/03/04 12:18:27;;;;;;;1999.90;853.75;;;11.70;99.90;;;;;;4984012;28;20542;-85
2023/03/04 12:20:58;;;;;;;1999.90;999.90;;;11.70;99.90;;;;;;4987664;28;20069;-85
2023/03/04 12:23:34;;;;;;;1999.90;999.90;;;11.30;99.90;;;;;;4985788;28;20038;-85